Impacts TAF Board INFO
FOR SITUATIONAL AWARENESS. NOT TO BE USED FOR FLIGHT PLANNING PURPOSES.
IDs:

KCLE - Cleveland/Hopkins In, OH, US

Issued at 0657 UTC 12 Dec 2017
Updated at 0825 UTC 12 Dec 2017
Potential Impact None Slight Moderate High
Time0805Z 12/09Z 12/10Z 12/11Z 12/12Z 12/13Z 12/14Z 12/15Z 12/16Z 12/17Z 12/18Z 12/19Z 12/20Z 12/21Z>>
Type OBS PRVL PRVL PRVL PRVL PRVL PRVL PRVL PRVL PRVL PRVL PRVL PRVL PRVL
VIS 1.75 1.5 1.5 2 2 2 6 6 6 6 6 6 6 6
CIG 8 15 15 15 15 15 20 20 20 20 20 20 20 20
Cover OVC OVC OVC OVC OVC OVC OVC OVC OVC OVC OVC OVC OVC OVC
FltCat IFR IFR IFR IFR IFR IFR MVFR MVFR MVFR MVFR MVFR MVFR MVFR MVFR
WX -SN BR -SN -SN -SHSN -SHSN -SHSN -SHSN -SHSN -SHSN -SHSN -SHSN -SHSN -SHSN -SHSN
WDir 280 350 350 300 300 300 300 300 300 300 300 300 300 300
WSpd 6 5 5 20 20 20 22 22 22 22 22 22 22 22
WGst -- -- -- 30 30 30 32 32 32 32 32 32 32 32

Raw TAF
KCLE 120657Z 1207/1312 36005KT 2SM -SN OVC025
  FM120800 35005KT 1 1/2SM -SN SCT008 OVC015
  FM121100 30020G30KT 2SM -SHSN OVC015
  FM121400 30022G32KT 6SM -SHSN OVC020


Raw METAR
KCLE 120805Z 28006KT 1 3/4SM -SN BR BKN008 OVC014 01/M01 A2963 RMK AO2 P0001 T00061006
KCLE 120751Z 29004KT 1 1/2SM -SN BR SCT008 BKN014 OVC026 00/M01 A2963 RMK AO2 SLP040 P0001 T00001006
KCLE 120746Z 27004KT 1 1/2SM -SN BR BKN008 BKN014 OVC029 00/M01 A2963 RMK AO2 P0001
KCLE 120740Z 26003KT 1 3/4SM -SN BR FEW008 BKN020 OVC027 00/M01 A2963 RMK AO2 P0001 T00001006
KCLE 120736Z 24004KT 2 1/2SM -SN BR FEW015 SCT020 OVC029 00/M01 A2963 RMK AO2 P0001 T00001011
KCLE 120728Z 23003KT 3SM -SN BR FEW023 BKN029 OVC049 00/M01 A2963 RMK AO2 P0001 T00001011
KCLE 120724Z 23003KT 2 1/2SM -SN BR BKN031 OVC048 00/M01 A2962 RMK AO2 P0000 T00001011
KCLE 120702Z 00000KT 3SM -SN BR SCT027 BKN034 OVC046 00/M01 A2962 RMK AO2 P0000 T00001006
KCLE 120651Z 00000KT 2SM -SN BR BKN025 BKN034 OVC046 00/M01 A2962 RMK AO2 SLP039 P0000 T00001006
KCLE 120624Z 03004KT 2 1/2SM -SN BR OVC025 01/M01 A2962 RMK AO2 P0000 T00061011
KCLE 120603Z 05007KT 4SM -SN BKN029 BKN036 OVC042 01/M02 A2961 RMK AO2 P0000 T00111017
KCLE 120551Z 05006KT 5SM -SN OVC039 01/M02 A2962 RMK AO2 SNB30 SLP039 P0000 60000 T00111017 10017 20000 56025

METAR Board
Radar Display
Forecast Discussion

FOR SITUATIONAL AWARENESS. NOT TO BE USED FOR FLIGHT PLANNING PURPOSES.